sensor_id;sensor_type;location;lat;lon;timestamp;pressure;altitude;pressure_sealevel;temperature
65316;BMP280;51920;53.952;10.292;2023-05-24T00:00:12;101457.94;;;10.46
65316;BMP280;51920;53.952;10.292;2023-05-24T00:02:39;101449.41;;;10.44
65316;BMP280;51920;53.952;10.292;2023-05-24T00:05:09;101460.38;;;10.51
65316;BMP280;51920;53.952;10.292;2023-05-24T00:07:36;101457.25;;;10.49
65316;BMP280;51920;53.952;10.292;2023-05-24T00:10:04;101450.91;;;10.42
65316;BMP280;51920;53.952;10.292;2023-05-24T00:12:32;101452.81;;;10.41
65316;BMP280;51920;53.952;10.292;2023-05-24T00:14:58;101453.25;;;10.43
65316;BMP280;51920;53.952;10.292;2023-05-24T00:17:25;101447.69;;;10.36
65316;BMP280;51920;53.952;10.292;2023-05-24T00:19:52;101449.69;;;10.39
65316;BMP280;51920;53.952;10.292;2023-05-24T00:22:19;101433.81;;;10.38
65316;BMP280;51920;53.952;10.292;2023-05-24T00:24:47;101451.25;;;10.40
65316;BMP280;51920;53.952;10.292;2023-05-24T00:27:14;101444.00;;;10.44
65316;BMP280;51920;53.952;10.292;2023-05-24T00:29:41;101436.22;;;10.43
65316;BMP280;51920;53.952;10.292;2023-05-24T00:32:07;101440.38;;;10.37
65316;BMP280;51920;53.952;10.292;2023-05-24T00:34:35;101434.59;;;10.38
65316;BMP280;51920;53.952;10.292;2023-05-24T00:37:03;101426.09;;;10.40
65316;BMP280;51920;53.952;10.292;2023-05-24T00:39:29;101432.19;;;10.33
65316;BMP280;51920;53.952;10.292;2023-05-24T00:41:56;101427.97;;;10.35
65316;BMP280;51920;53.952;10.292;2023-05-24T00:44:22;101421.03;;;10.38
65316;BMP280;51920;53.952;10.292;2023-05-24T00:46:49;101425.72;;;10.41
65316;BMP280;51920;53.952;10.292;2023-05-24T00:49:16;101414.56;;;10.43
65316;BMP280;51920;53.952;10.292;2023-05-24T00:51:44;101421.47;;;10.40
65316;BMP280;51920;53.952;10.292;2023-05-24T00:54:11;101426.97;;;10.44
65316;BMP280;51920;53.952;10.292;2023-05-24T00:56:41;101417.06;;;10.32
65316;BMP280;51920;53.952;10.292;2023-05-24T00:59:08;101423.75;;;10.38
65316;BMP280;51920;53.952;10.292;2023-05-24T01:01:37;101428.44;;;10.41
65316;BMP280;51920;53.952;10.292;2023-05-24T01:04:03;101431.16;;;10.41
65316;BMP280;51920;53.952;10.292;2023-05-24T01:06:38;101435.38;;;10.39
65316;BMP280;51920;53.952;10.292;2023-05-24T01:09:24;101436.22;;;10.43
65316;BMP280;51920;53.952;10.292;2023-05-24T01:12:25;101438.94;;;10.43
65316;BMP280;51920;53.952;10.292;2023-05-24T01:18:38;101439.06;;;10.30
65316;BMP280;51920;53.952;10.292;2023-05-24T01:26:32;101433.44;;;10.39
65316;BMP280;51920;53.952;10.292;2023-05-24T01:29:01;101443.16;;;10.40
65316;BMP280;51920;53.952;10.292;2023-05-24T01:31:29;101446.16;;;10.35
65316;BMP280;51920;53.952;10.292;2023-05-24T01:33:55;101437.59;;;10.33
65316;BMP280;51920;53.952;10.292;2023-05-24T01:36:22;101436.13;;;10.39
65316;BMP280;51920;53.952;10.292;2023-05-24T01:38:49;101437.72;;;10.40
65316;BMP280;51920;53.952;10.292;2023-05-24T01:41:38;101433.72;;;10.34
65316;BMP280;51920;53.952;10.292;2023-05-24T01:46:41;101418.44;;;10.22
65316;BMP280;51920;53.952;10.292;2023-05-24T01:49:26;101436.56;;;10.41
65316;BMP280;51920;53.952;10.292;2023-05-24T01:52:02;101432.59;;;10.35
65316;BMP280;51920;53.952;10.292;2023-05-24T01:54:32;101437.72;;;10.40
65316;BMP280;51920;53.952;10.292;2023-05-24T01:57:03;101435.75;;;10.37
65316;BMP280;51920;53.952;10.292;2023-05-24T01:59:31;101443.16;;;10.40
65316;BMP280;51920;53.952;10.292;2023-05-24T02:01:58;101436.53;;;10.38
65316;BMP280;51920;53.952;10.292;2023-05-24T02:04:26;101438.44;;;10.37
65316;BMP280;51920;53.952;10.292;2023-05-24T02:06:52;101428.44;;;10.41
65316;BMP280;51920;53.952;10.292;2023-05-24T02:09:19;101427.63;;;10.37
65316;BMP280;51920;53.952;10.292;2023-05-24T02:11:48;101429.91;;;10.35
65316;BMP280;51920;53.952;10.292;2023-05-24T02:14:15;101430.31;;;10.37
65316;BMP280;51920;53.952;10.292;2023-05-24T02:16:42;101433.38;;;10.35
65316;BMP280;51920;53.952;10.292;2023-05-24T02:19:13;101434.66;;;10.42
65316;BMP280;51920;53.952;10.292;2023-05-24T02:21:39;101424.75;;;10.30
65316;BMP280;51920;53.952;10.292;2023-05-24T02:24:06;101427.25;;;10.39
65316;BMP280;51920;53.952;10.292;2023-05-24T02:26:33;101431.50;;;10.40
65316;BMP280;51920;53.952;10.292;2023-05-24T02:28:59;101428.41;;;10.38
65316;BMP280;51920;53.952;10.292;2023-05-24T02:31:26;101426.84;;;10.37
65316;BMP280;51920;53.952;10.292;2023-05-24T02:33:54;101443.91;;;10.41
65316;BMP280;51920;53.952;10.292;2023-05-24T02:36:21;101431.44;;;10.36
65316;BMP280;51920;53.952;10.292;2023-05-24T02:38:52;101445.94;;;10.44
65316;BMP280;51920;53.952;10.292;2023-05-24T02:41:21;101433.94;;;10.45
65316;BMP280;51920;53.952;10.292;2023-05-24T02:43:48;101448.22;;;10.42
65316;BMP280;51920;53.952;10.292;2023-05-24T02:46:15;101445.56;;;10.45
65316;BMP280;51920;53.952;10.292;2023-05-24T02:48:41;101435.75;;;10.37
65316;BMP280;51920;53.952;10.292;2023-05-24T02:51:08;101432.25;;;10.37
65316;BMP280;51920;53.952;10.292;2023-05-24T02:53:35;101445.50;;;10.42
65316;BMP280;51920;53.952;10.292;2023-05-24T02:56:01;101438.16;;;10.42
65316;BMP280;51920;53.952;10.292;2023-05-24T02:58:30;101418.28;;;10.34
65316;BMP280;51920;53.952;10.292;2023-05-24T03:00:57;101421.81;;;10.39
65316;BMP280;51920;53.952;10.292;2023-05-24T03:03:23;101435.38;;;10.39
65316;BMP280;51920;53.952;10.292;2023-05-24T03:05:50;101432.31;;;10.40
65316;BMP280;51920;53.952;10.292;2023-05-24T03:08:17;101432.31;;;10.40
65316;BMP280;51920;53.952;10.292;2023-05-24T03:10:43;101424.47;;;10.35
65316;BMP280;51920;53.952;10.292;2023-05-24T03:13:11;101437.00;;;10.43
65316;BMP280;51920;53.952;10.292;2023-05-24T03:15:38;101427.88;;;10.32
65316;BMP280;51920;53.952;10.292;2023-05-24T03:18:05;101421.00;;;10.34
65316;BMP280;51920;53.952;10.292;2023-05-24T03:20:33;101416.63;;;10.30
65316;BMP280;51920;53.952;10.292;2023-05-24T03:22:59;101421.47;;;10.40
65316;BMP280;51920;53.952;10.292;2023-05-24T03:25:26;101431.97;;;10.42
65316;BMP280;51920;53.952;10.292;2023-05-24T03:27:53;101428.41;;;10.38
65316;BMP280;51920;53.952;10.292;2023-05-24T03:30:20;101440.44;;;10.40
65316;BMP280;51920;53.952;10.292;2023-05-24T03:32:51;101437.72;;;10.40
65316;BMP280;51920;53.952;10.292;2023-05-24T03:35:18;101433.81;;;10.38
65316;BMP280;51920;53.952;10.292;2023-05-24T03:37:46;101444.34;;;10.43
65316;BMP280;51920;53.952;10.292;2023-05-24T03:40:13;101446.28;;;10.42
65316;BMP280;51920;53.952;10.292;2023-05-24T03:43:00;101443.66;;;10.46
65316;BMP280;51920;53.952;10.292;2023-05-24T03:45:38;101447.53;;;10.48
65316;BMP280;51920;53.952;10.292;2023-05-24T03:48:05;101447.97;;;10.50
65316;BMP280;51920;53.952;10.292;2023-05-24T03:50:33;101440.16;;;10.45
65316;BMP280;51920;53.952;10.292;2023-05-24T03:53:00;101438.69;;;10.51
65316;BMP280;51920;53.952;10.292;2023-05-24T03:55:26;101437.16;;;10.50
65316;BMP280;51920;53.952;10.292;2023-05-24T03:57:53;101433.97;;;10.48
65316;BMP280;51920;53.952;10.292;2023-05-24T04:00:19;101432.16;;;10.52
65316;BMP280;51920;53.952;10.292;2023-05-24T04:02:47;101445.41;;;10.57
65316;BMP280;51920;53.952;10.292;2023-05-24T04:05:14;101420.91;;;10.50
65316;BMP280;51920;53.952;10.292;2023-05-24T04:07:40;101432.28;;;10.60
65316;BMP280;51920;53.952;10.292;2023-05-24T04:10:10;101428.97;;;10.70
65316;BMP280;51920;53.952;10.292;2023-05-24T04:12:37;101424.28;;;10.67
65316;BMP280;51920;53.952;10.292;2023-05-24T04:15:05;101427.41;;;10.69
65316;BMP280;51920;53.952;10.292;2023-05-24T04:17:32;101425.13;;;10.71
65316;BMP280;51920;53.952;10.292;2023-05-24T04:20:00;101426.25;;;10.70
65316;BMP280;51920;53.952;10.292;2023-05-24T04:22:27;101440.22;;;10.72
65316;BMP280;51920;53.952;10.292;2023-05-24T04:24:53;101441.91;;;10.80
65316;BMP280;51920;53.952;10.292;2023-05-24T04:27:20;101447.81;;;10.63
65316;BMP280;51920;53.952;10.292;2023-05-24T04:29:47;101451.38;;;10.67
65316;BMP280;51920;53.952;10.292;2023-05-24T04:32:15;101460.03;;;10.76
65316;BMP280;51920;53.952;10.292;2023-05-24T04:34:44;101470.00;;;10.68
65316;BMP280;51920;53.952;10.292;2023-05-24T04:37:11;101466.91;;;10.70
65316;BMP280;51920;53.952;10.292;2023-05-24T04:39:44;101474.03;;;10.78
65316;BMP280;51920;53.952;10.292;2023-05-24T04:42:11;101476.41;;;10.83
65316;BMP280;51920;53.952;10.292;2023-05-24T04:44:41;101474.19;;;10.89
65316;BMP280;51920;53.952;10.292;2023-05-24T04:47:09;101462.81;;;10.80
65316;BMP280;51920;53.952;10.292;2023-05-24T04:49:36;101461.97;;;10.98
65316;BMP280;51920;53.952;10.292;2023-05-24T04:52:03;101456.72;;;11.09
65316;BMP280;51920;53.952;10.292;2023-05-24T04:54:30;101459.09;;;11.11
65316;BMP280;51920;53.952;10.292;2023-05-24T04:56:56;101465.97;;;11.31
65316;BMP280;51920;53.952;10.292;2023-05-24T04:59:24;101468.09;;;11.18
65316;BMP280;51920;53.952;10.292;2023-05-24T05:01:50;101464.66;;;11.22
65316;BMP280;51920;53.952;10.292;2023-05-24T05:04:17;101464.56;;;11.14
65316;BMP280;51920;53.952;10.292;2023-05-24T05:06:44;101465.09;;;11.01
65316;BMP280;51920;53.952;10.292;2023-05-24T05:09:11;101471.34;;;11.05
65316;BMP280;51920;53.952;10.292;2023-05-24T05:11:40;101479.47;;;11.05
65316;BMP280;51920;53.952;10.292;2023-05-24T05:14:07;101477.81;;;10.96
65316;BMP280;51920;53.952;10.292;2023-05-24T05:16:37;101483.25;;;10.96
65316;BMP280;51920;53.952;10.292;2023-05-24T05:19:04;101489.09;;;10.98
65316;BMP280;51920;53.952;10.292;2023-05-24T05:21:31;101488.00;;;11.03
65316;BMP280;51920;53.952;10.292;2023-05-24T05:23:59;101482.50;;;10.99
65316;BMP280;51920;53.952;10.292;2023-05-24T05:26:27;101487.50;;;10.97
65316;BMP280;51920;53.952;10.292;2023-05-24T05:28:54;101499.81;;;10.91
65316;BMP280;51920;53.952;10.292;2023-05-24T05:31:21;101499.88;;;10.95
65316;BMP280;51920;53.952;10.292;2023-05-24T05:33:48;101498.34;;;10.97
65316;BMP280;51920;53.952;10.292;2023-05-24T05:36:15;101501.59;;;11.07
65316;BMP280;51920;53.952;10.292;2023-05-24T05:38:42;101505.13;;;11.07
65316;BMP280;51920;53.952;10.292;2023-05-24T05:41:09;101506.72;;;11.12
65316;BMP280;51920;53.952;10.292;2023-05-24T05:43:37;101508.13;;;11.25
65316;BMP280;51920;53.952;10.292;2023-05-24T05:46:04;101507.66;;;11.19
65316;BMP280;51920;53.952;10.292;2023-05-24T05:48:31;101513.38;;;11.14
65316;BMP280;51920;53.952;10.292;2023-05-24T05:50:57;101515.63;;;11.12
65316;BMP280;51920;53.952;10.292;2023-05-24T05:53:24;101503.59;;;11.10
65316;BMP280;51920;53.952;10.292;2023-05-24T05:55:50;101506.00;;;11.15
65316;BMP280;51920;53.952;10.292;2023-05-24T05:58:17;101513.44;;;11.18
65316;BMP280;51920;53.952;10.292;2023-05-24T06:00:44;101512.63;;;11.17
65316;BMP280;51920;53.952;10.292;2023-05-24T06:03:10;101520.00;;;11.17
65316;BMP280;51920;53.952;10.292;2023-05-24T06:05:37;101531.38;;;11.26
65316;BMP280;51920;53.952;10.292;2023-05-24T06:08:04;101539.09;;;11.24
65316;BMP280;51920;53.952;10.292;2023-05-24T06:10:30;101552.69;;;11.28
65316;BMP280;51920;53.952;10.292;2023-05-24T06:12:57;101551.97;;;11.31
65316;BMP280;51920;53.952;10.292;2023-05-24T06:15:24;101555.59;;;11.38
65316;BMP280;51920;53.952;10.292;2023-05-24T06:17:50;101550.41;;;11.30
65316;BMP280;51920;53.952;10.292;2023-05-24T06:20:18;101555.00;;;11.49
65316;BMP280;51920;53.952;10.292;2023-05-24T06:22:44;101555.28;;;11.44
65316;BMP280;51920;53.952;10.292;2023-05-24T06:25:11;101551.91;;;11.50
65316;BMP280;51920;53.952;10.292;2023-05-24T06:27:45;101550.81;;;11.55
65316;BMP280;51920;53.952;10.292;2023-05-24T06:30:12;101554.56;;;11.73
65316;BMP280;51920;53.952;10.292;2023-05-24T06:32:39;101556.25;;;11.81
65316;BMP280;51920;53.952;10.292;2023-05-24T06:35:06;101560.84;;;11.77
65316;BMP280;51920;53.952;10.292;2023-05-24T06:37:33;101562.47;;;11.82
65316;BMP280;51920;53.952;10.292;2023-05-24T06:40:01;101557.00;;;11.78
65316;BMP280;51920;53.952;10.292;2023-05-24T06:42:27;101572.06;;;11.76
65316;BMP280;51920;53.952;10.292;2023-05-24T06:44:54;101581.31;;;11.71
65316;BMP280;51920;53.952;10.292;2023-05-24T06:47:21;101588.75;;;11.78
65316;BMP280;51920;53.952;10.292;2023-05-24T06:49:48;101579.41;;;11.75
65316;BMP280;51920;53.952;10.292;2023-05-24T06:52:15;101582.72;;;11.88
65316;BMP280;51920;53.952;10.292;2023-05-24T06:54:42;101588.59;;;11.94
65316;BMP280;51920;53.952;10.292;2023-05-24T06:57:08;101584.75;;;11.95
65316;BMP280;51920;53.952;10.292;2023-05-24T06:59:35;101594.34;;;11.89
65316;BMP280;51920;53.952;10.292;2023-05-24T07:02:02;101581.09;;;11.83
65316;BMP280;51920;53.952;10.292;2023-05-24T07:04:29;101600.09;;;11.83
65316;BMP280;51920;53.952;10.292;2023-05-24T07:06:56;101591.72;;;11.92
65316;BMP280;51920;53.952;10.292;2023-05-24T07:09:23;101600.28;;;11.94
65316;BMP280;51920;53.952;10.292;2023-05-24T07:11:50;101596.06;;;12.00
65316;BMP280;51920;53.952;10.292;2023-05-24T07:14:17;101600.72;;;12.00
65316;BMP280;51920;53.952;10.292;2023-05-24T07:16:44;101599.16;;;11.99
65316;BMP280;51920;53.952;10.292;2023-05-24T07:19:12;101606.25;;;12.07
65316;BMP280;51920;53.952;10.292;2023-05-24T07:21:41;101600.91;;;12.14
65316;BMP280;51920;53.952;10.292;2023-05-24T07:24:08;101599.50;;;12.24
65316;BMP280;51920;53.952;10.292;2023-05-24T07:26:34;101611.34;;;12.39
65316;BMP280;51920;53.952;10.292;2023-05-24T07:29:01;101611.25;;;12.32
65316;BMP280;51920;53.952;10.292;2023-05-24T07:31:28;101615.63;;;12.13
65316;BMP280;51920;53.952;10.292;2023-05-24T07:33:57;101610.88;;;12.03
65316;BMP280;51920;53.952;10.292;2023-05-24T07:36:23;101614.91;;;12.16
65316;BMP280;51920;53.952;10.292;2023-05-24T07:38:51;101617.25;;;12.18
65316;BMP280;51920;53.952;10.292;2023-05-24T07:41:18;101617.31;;;12.21
65316;BMP280;51920;53.952;10.292;2023-05-24T07:43:45;101619.88;;;12.41
65316;BMP280;51920;53.952;10.292;2023-05-24T07:46:12;101628.31;;;12.62
65316;BMP280;51920;53.952;10.292;2023-05-24T07:48:38;101628.38;;;12.70
65316;BMP280;51920;53.952;10.292;2023-05-24T07:51:05;101636.00;;;12.91
65316;BMP280;51920;53.952;10.292;2023-05-24T07:53:32;101627.97;;;13.01
65316;BMP280;51920;53.952;10.292;2023-05-24T07:56:00;101634.38;;;13.20
65316;BMP280;51920;53.952;10.292;2023-05-24T07:58:26;101636.34;;;13.26
65316;BMP280;51920;53.952;10.292;2023-05-24T08:00:53;101636.00;;;13.28
65316;BMP280;51920;53.952;10.292;2023-05-24T08:03:20;101638.97;;;13.16
65316;BMP280;51920;53.952;10.292;2023-05-24T08:05:47;101646.41;;;13.19
65316;BMP280;51920;53.952;10.292;2023-05-24T08:08:13;101635.09;;;13.17
65316;BMP280;51920;53.952;10.292;2023-05-24T08:10:41;101633.69;;;13.34
65316;BMP280;51920;53.952;10.292;2023-05-24T08:13:07;101639.66;;;13.46
65316;BMP280;51920;53.952;10.292;2023-05-24T08:15:34;101638.63;;;13.69
65316;BMP280;51920;53.952;10.292;2023-05-24T08:18:01;101636.00;;;13.80
65316;BMP280;51920;53.952;10.292;2023-05-24T08:20:28;101628.50;;;13.62
65316;BMP280;51920;53.952;10.292;2023-05-24T08:22:54;101634.75;;;13.66
65316;BMP280;51920;53.952;10.292;2023-05-24T08:25:21;101633.06;;;13.54
65316;BMP280;51920;53.952;10.292;2023-05-24T08:27:48;101633.50;;;13.57
65316;BMP280;51920;53.952;10.292;2023-05-24T08:30:15;101638.50;;;13.47
65316;BMP280;51920;53.952;10.292;2023-05-24T08:32:41;101641.94;;;13.44
65316;BMP280;51920;53.952;10.292;2023-05-24T08:35:08;101638.91;;;13.53
65316;BMP280;51920;53.952;10.292;2023-05-24T08:37:43;101647.78;;;13.43
65316;BMP280;51920;53.952;10.292;2023-05-24T08:40:11;101645.88;;;13.47
65316;BMP280;51920;53.952;10.292;2023-05-24T08:42:38;101646.66;;;13.51
65316;BMP280;51920;53.952;10.292;2023-05-24T08:45:11;101643.19;;;13.50
65316;BMP280;51920;53.952;10.292;2023-05-24T08:47:38;101648.13;;;13.34
65316;BMP280;51920;53.952;10.292;2023-05-24T08:50:06;101656.28;;;13.34
65316;BMP280;51920;53.952;10.292;2023-05-24T08:52:34;101658.56;;;13.32
65316;BMP280;51920;53.952;10.292;2023-05-24T08:55:03;101661.81;;;13.45
65316;BMP280;51920;53.952;10.292;2023-05-24T08:57:31;101662.16;;;13.43
65316;BMP280;51920;53.952;10.292;2023-05-24T08:59:59;101661.00;;;13.44
65316;BMP280;51920;53.952;10.292;2023-05-24T09:02:27;101665.00;;;13.58
65316;BMP280;51920;53.952;10.292;2023-05-24T09:04:55;101671.59;;;13.53
65316;BMP280;51920;53.952;10.292;2023-05-24T09:07:22;101673.53;;;13.56
65316;BMP280;51920;53.952;10.292;2023-05-24T09:09:57;101677.03;;;13.57
65316;BMP280;51920;53.952;10.292;2023-05-24T09:12:29;101687.09;;;13.49
65316;BMP280;51920;53.952;10.292;2023-05-24T09:15:02;101681.34;;;13.58
65316;BMP280;51920;53.952;10.292;2023-05-24T09:17:30;101677.84;;;13.53
65316;BMP280;51920;53.952;10.292;2023-05-24T09:19:58;101679.75;;;13.57
65316;BMP280;51920;53.952;10.292;2023-05-24T09:22:26;101684.19;;;13.72
65316;BMP280;51920;53.952;10.292;2023-05-24T09:25:00;101682.75;;;13.89
65316;BMP280;51920;53.952;10.292;2023-05-24T09:27:27;101681.34;;;14.09
65316;BMP280;51920;53.952;10.292;2023-05-24T09:29:54;101688.38;;;14.14
65316;BMP280;51920;53.952;10.292;2023-05-24T09:32:22;101693.13;;;14.24
65316;BMP280;51920;53.952;10.292;2023-05-24T09:34:51;101687.72;;;14.38
65316;BMP280;51920;53.952;10.292;2023-05-24T09:37:21;101690.91;;;14.51
65316;BMP280;51920;53.952;10.292;2023-05-24T09:39:52;101690.16;;;14.61
65316;BMP280;51920;53.952;10.292;2023-05-24T09:42:21;101693.28;;;14.67
65316;BMP280;51920;53.952;10.292;2023-05-24T09:45:04;101694.06;;;14.68
65316;BMP280;51920;53.952;10.292;2023-05-24T09:47:39;101688.63;;;14.71
65316;BMP280;51920;53.952;10.292;2023-05-24T09:50:15;101696.81;;;14.75
65316;BMP280;51920;53.952;10.292;2023-05-24T09:52:45;101690.22;;;14.79
65316;BMP280;51920;53.952;10.292;2023-05-24T09:55:17;101702.28;;;14.71
65316;BMP280;51920;53.952;10.292;2023-05-24T09:58:09;101695.19;;;14.56
65316;BMP280;51920;53.952;10.292;2023-05-24T10:00:39;101711.13;;;14.47
65316;BMP280;51920;53.952;10.292;2023-05-24T10:03:08;101707.22;;;14.41
65316;BMP280;51920;53.952;10.292;2023-05-24T10:05:37;101704.03;;;14.31
65316;BMP280;51920;53.952;10.292;2023-05-24T10:08:04;101696.25;;;14.30
65316;BMP280;51920;53.952;10.292;2023-05-24T10:10:32;101705.59;;;14.32
65316;BMP280;51920;53.952;10.292;2023-05-24T10:12:59;101704.13;;;14.42
65316;BMP280;51920;53.952;10.292;2023-05-24T10:15:28;101701.03;;;14.51
65316;BMP280;51920;53.952;10.292;2023-05-24T10:17:55;101689.34;;;14.54
65316;BMP280;51920;53.952;10.292;2023-05-24T10:20:23;101703.84;;;14.76
65316;BMP280;51920;53.952;10.292;2023-05-24T10:23:00;101707.75;;;14.86
65316;BMP280;51920;53.952;10.292;2023-05-24T10:25:32;101703.81;;;14.65
65316;BMP280;51920;53.952;10.292;2023-05-24T10:28:06;101719.06;;;14.88
65316;BMP280;51920;53.952;10.292;2023-05-24T10:31:00;101706.66;;;15.04
65316;BMP280;51920;53.952;10.292;2023-05-24T10:33:29;101723.84;;;15.30
65316;BMP280;51920;53.952;10.292;2023-05-24T10:35:57;101718.81;;;15.36
65316;BMP280;51920;53.952;10.292;2023-05-24T10:38:25;101716.84;;;15.40
65316;BMP280;51920;53.952;10.292;2023-05-24T10:40:51;101718.00;;;15.46
65316;BMP280;51920;53.952;10.292;2023-05-24T10:43:20;101714.50;;;15.53
65316;BMP280;51920;53.952;10.292;2023-05-24T10:45:48;101714.09;;;15.90
65316;BMP280;51920;53.952;10.292;2023-05-24T10:50:43;101710.97;;;15.88
65316;BMP280;51920;53.952;10.292;2023-05-24T11:03:52;101719.94;;;15.78
65316;BMP280;51920;53.952;10.292;2023-05-24T11:06:49;101718.81;;;15.64
65316;BMP280;51920;53.952;10.292;2023-05-24T11:09:19;101712.16;;;15.55
65316;BMP280;51920;53.952;10.292;2023-05-24T11:11:47;101723.84;;;15.52
65316;BMP280;51920;53.952;10.292;2023-05-24T11:14:21;101719.97;;;15.53
65316;BMP280;51920;53.952;10.292;2023-05-24T11:16:48;101720.38;;;15.58
65316;BMP280;51920;53.952;10.292;2023-05-24T11:19:27;101719.97;;;15.45
65316;BMP280;51920;53.952;10.292;2023-05-24T11:21:56;101717.22;;;15.49
65316;BMP280;51920;53.952;10.292;2023-05-24T11:24:26;101722.31;;;15.68
65316;BMP280;51920;53.952;10.292;2023-05-24T11:26:53;101716.47;;;15.52
65316;BMP280;51920;53.952;10.292;2023-05-24T11:29:20;101728.19;;;15.70
65316;BMP280;51920;53.952;10.292;2023-05-24T11:31:58;101720.69;;;16.10
65316;BMP280;51920;53.952;10.292;2023-05-24T11:34:32;101721.69;;;16.59
65316;BMP280;51920;53.952;10.292;2023-05-24T11:37:02;101717.75;;;16.68
65316;BMP280;51920;53.952;10.292;2023-05-24T11:39:33;101729.06;;;16.73
65316;BMP280;51920;53.952;10.292;2023-05-24T11:42:03;101732.19;;;16.72
65316;BMP280;51920;53.952;10.292;2023-05-24T11:44:31;101729.00;;;16.84
65316;BMP280;51920;53.952;10.292;2023-05-24T11:46:59;101719.44;;;16.47
65316;BMP280;51920;53.952;10.292;2023-05-24T11:49:26;101727.63;;;16.44
65316;BMP280;51920;53.952;10.292;2023-05-24T11:51:54;101728.34;;;16.62
65316;BMP280;51920;53.952;10.292;2023-05-24T11:54:25;101724.47;;;16.52
65316;BMP280;51920;53.952;10.292;2023-05-24T11:56:53;101728.44;;;16.41
65316;BMP280;51920;53.952;10.292;2023-05-24T11:59:25;101726.00;;;16.57
65316;BMP280;51920;53.952;10.292;2023-05-24T12:02:05;101732.66;;;16.52
65316;BMP280;51920;53.952;10.292;2023-05-24T12:04:33;101740.88;;;16.52
65316;BMP280;51920;53.952;10.292;2023-05-24T12:07:00;101741.72;;;16.42
65316;BMP280;51920;53.952;10.292;2023-05-24T12:09:27;101731.59;;;16.28
65316;BMP280;51920;53.952;10.292;2023-05-24T12:11:54;101744.84;;;16.41
65316;BMP280;51920;53.952;10.292;2023-05-24T12:14:22;101742.88;;;16.38
65316;BMP280;51920;53.952;10.292;2023-05-24T12:16:49;101724.47;;;16.45
65316;BMP280;51920;53.952;10.292;2023-05-24T12:19:19;101740.22;;;17.08
65316;BMP280;51920;53.952;10.292;2023-05-24T12:21:54;101730.09;;;17.50
65316;BMP280;51920;53.952;10.292;2023-05-24T12:24:22;101736.25;;;17.64
65316;BMP280;51920;53.952;10.292;2023-05-24T12:26:49;101733.03;;;17.73
65316;BMP280;51920;53.952;10.292;2023-05-24T12:29:16;101734.09;;;17.83
65316;BMP280;51920;53.952;10.292;2023-05-24T12:31:46;101739.66;;;18.13
65316;BMP280;51920;53.952;10.292;2023-05-24T12:34:18;101734.28;;;18.03
65316;BMP280;51920;53.952;10.292;2023-05-24T12:36:48;101741.41;;;17.97
65316;BMP280;51920;53.952;10.292;2023-05-24T12:39:22;101750.22;;;17.77
65316;BMP280;51920;53.952;10.292;2023-05-24T12:41:51;101745.72;;;17.56
65316;BMP280;51920;53.952;10.292;2023-05-24T12:44:25;101743.84;;;17.46
65316;BMP280;51920;53.952;10.292;2023-05-24T12:46:53;101740.38;;;17.38
65316;BMP280;51920;53.952;10.292;2023-05-24T12:49:22;101737.00;;;17.20
65316;BMP280;51920;53.952;10.292;2023-05-24T12:51:49;101752.41;;;16.92
65316;BMP280;51920;53.952;10.292;2023-05-24T12:54:24;101745.69;;;17.08
65316;BMP280;51920;53.952;10.292;2023-05-24T12:56:52;101753.00;;;17.21
65316;BMP280;51920;53.952;10.292;2023-05-24T12:59:21;101748.28;;;17.29
65316;BMP280;51920;53.952;10.292;2023-05-24T13:01:47;101752.03;;;17.50
65316;BMP280;51920;53.952;10.292;2023-05-24T13:04:19;101743.22;;;17.24
65316;BMP280;51920;53.952;10.292;2023-05-24T13:06:46;101745.38;;;17.47
65316;BMP280;51920;53.952;10.292;2023-05-24T13:09:16;101745.72;;;17.53
65316;BMP280;51920;53.952;10.292;2023-05-24T13:11:48;101748.63;;;17.80
65316;BMP280;51920;53.952;10.292;2023-05-24T13:14:14;101739.72;;;17.68
65316;BMP280;51920;53.952;10.292;2023-05-24T13:16:42;101741.88;;;17.50
65316;BMP280;51920;53.952;10.292;2023-05-24T13:19:09;101745.06;;;17.38
65316;BMP280;51920;53.952;10.292;2023-05-24T13:21:36;101740.44;;;17.28
65316;BMP280;51920;53.952;10.292;2023-05-24T13:24:03;101743.56;;;17.30
65316;BMP280;51920;53.952;10.292;2023-05-24T13:26:31;101752.56;;;17.27
65316;BMP280;51920;53.952;10.292;2023-05-24T13:29:03;101740.03;;;17.33
65316;BMP280;51920;53.952;10.292;2023-05-24T13:31:33;101738.88;;;17.30
65316;BMP280;51920;53.952;10.292;2023-05-24T13:34:02;101740.50;;;17.24
65316;BMP280;51920;53.952;10.292;2023-05-24T13:36:29;101735.88;;;17.10
65316;BMP280;51920;53.952;10.292;2023-05-24T13:38:55;101736.31;;;17.01
65316;BMP280;51920;53.952;10.292;2023-05-24T13:41:27;101739.09;;;16.98
65316;BMP280;51920;53.952;10.292;2023-05-24T13:43:54;101735.22;;;16.92
65316;BMP280;51920;53.952;10.292;2023-05-24T13:46:21;101727.44;;;16.87
65316;BMP280;51920;53.952;10.292;2023-05-24T13:48:48;101723.44;;;16.98
65316;BMP280;51920;53.952;10.292;2023-05-24T13:51:14;101717.06;;;17.16
65316;BMP280;51920;53.952;10.292;2023-05-24T13:53:44;101720.13;;;17.29
65316;BMP280;51920;53.952;10.292;2023-05-24T13:56:11;101725.25;;;17.68
65316;BMP280;51920;53.952;10.292;2023-05-24T13:58:38;101723.56;;;17.78
65316;BMP280;51920;53.952;10.292;2023-05-24T14:01:04;101727.50;;;17.77
65316;BMP280;51920;53.952;10.292;2023-05-24T14:03:31;101716.09;;;17.85
65316;BMP280;51920;53.952;10.292;2023-05-24T14:05:58;101722.00;;;17.80
65316;BMP280;51920;53.952;10.292;2023-05-24T14:08:25;101724.81;;;17.73
65316;BMP280;51920;53.952;10.292;2023-05-24T14:10:51;101722.03;;;17.77
65316;BMP280;51920;53.952;10.292;2023-05-24T14:13:19;101713.69;;;17.87
65316;BMP280;51920;53.952;10.292;2023-05-24T14:16:06;101732.06;;;17.90